Oyster Bay, Alabama
Current Conditions -  °F | °C
As of 7:15 AM on Thursday 23 Oct 2014 (Local Time) from KJKA Reporting Station
Clear Clear  
Wind Chill: 46°   Ceiling: Unl
Heat Index: 48°   Visibility: 10mi
Dew Point: 44°   Wind: 5mph
Humidity: 86%   Direction: 30°NNE
Pressure: 30.08"   Gusts: NA
Location:  30.3794°N, 87.7151°W
Report Text: KJKA 231215Z AUTO 03004KT 10SM CLR 09/07 A3008 RMK AO2 T00880066
Loading
Personal Weather Stations






























Interactive Weather Map
Tropical Storm Tracking
New forecast layout! Learn more

10-Day Weather Forecast

Advertisements
Track Severe Weather on mobile